sensor_id;sensor_type;location;lat;lon;timestamp;pressure;altitude;pressure_sealevel;temperature;humidity
56604;BME280;42486;47.478;19.036;2023-02-03T00:02:10;100829.53;;;1.94;92.28
56604;BME280;42486;47.478;19.036;2023-02-03T00:05:52;100826.97;;;1.93;92.96
56604;BME280;42486;47.478;19.036;2023-02-03T00:09:11;100829.75;;;1.87;92.89
56604;BME280;42486;47.478;19.036;2023-02-03T00:12:24;100844.38;;;1.86;92.51
56604;BME280;42486;47.478;19.036;2023-02-03T00:15:52;100839.25;;;1.85;92.12
56604;BME280;42486;47.478;19.036;2023-02-03T00:19:37;100842.66;;;1.85;90.73
56604;BME280;42486;47.478;19.036;2023-02-03T00:22:42;100869.28;;;1.86;88.77
56604;BME280;42486;47.478;19.036;2023-02-03T00:29:44;100866.47;;;1.93;84.95
56604;BME280;42486;47.478;19.036;2023-02-03T00:33:06;100883.63;;;1.94;85.85
56604;BME280;42486;47.478;19.036;2023-02-03T00:36:34;100880.47;;;1.85;85.04
56604;BME280;42486;47.478;19.036;2023-02-03T00:40:09;100888.41;;;1.77;86.28
56604;BME280;42486;47.478;19.036;2023-02-03T00:43:31;100896.03;;;1.82;83.70
56604;BME280;42486;47.478;19.036;2023-02-03T00:47:17;100888.44;;;1.75;84.44
56604;BME280;42486;47.478;19.036;2023-02-03T00:50:58;100892.13;;;1.67;83.02
56604;BME280;42486;47.478;19.036;2023-02-03T00:54:45;100899.72;;;1.73;82.12
56604;BME280;42486;47.478;19.036;2023-02-03T00:58:42;100905.94;;;1.64;82.28
56604;BME280;42486;47.478;19.036;2023-02-03T01:02:28;100911.28;;;1.57;81.56
56604;BME280;42486;47.478;19.036;2023-02-03T01:06:16;100920.12;;;1.48;81.85
56604;BME280;42486;47.478;19.036;2023-02-03T01:20:06;100953.41;;;1.21;88.13
56604;BME280;42486;47.478;19.036;2023-02-03T01:23:37;100956.41;;;1.04;86.57
56604;BME280;42486;47.478;19.036;2023-02-03T01:27:08;100961.00;;;0.92;86.28
56604;BME280;42486;47.478;19.036;2023-02-03T01:30:50;100957.69;;;0.86;87.16
56604;BME280;42486;47.478;19.036;2023-02-03T01:34:20;100949.75;;;0.96;85.27
56604;BME280;42486;47.478;19.036;2023-02-03T01:37:38;100953.72;;;1.09;83.37
56604;BME280;42486;47.478;19.036;2023-02-03T01:41:31;100960.41;;;1.16;83.33
56604;BME280;42486;47.478;19.036;2023-02-03T01:44:47;100959.00;;;1.04;85.28
56604;BME280;42486;47.478;19.036;2023-02-03T01:48:30;100963.16;;;1.08;84.92
56604;BME280;42486;47.478;19.036;2023-02-03T01:52:00;100958.16;;;1.04;84.36
56604;BME280;42486;47.478;19.036;2023-02-03T01:55:37;100971.16;;;0.98;85.33
56604;BME280;42486;47.478;19.036;2023-02-03T01:59:09;100977.28;;;0.92;85.86
56604;BME280;42486;47.478;19.036;2023-02-03T02:02:37;100982.00;;;0.73;88.33
56604;BME280;42486;47.478;19.036;2023-02-03T02:06:11;100975.56;;;0.55;89.31
56604;BME280;42486;47.478;19.036;2023-02-03T02:10:01;100979.16;;;0.48;88.41
56604;BME280;42486;47.478;19.036;2023-02-03T02:14:01;100976.50;;;0.51;89.29
56604;BME280;42486;47.478;19.036;2023-02-03T02:21:39;100965.25;;;0.57;87.76
56604;BME280;42486;47.478;19.036;2023-02-03T02:25:19;100955.97;;;0.50;89.53
56604;BME280;42486;47.478;19.036;2023-02-03T02:36:31;100964.16;;;0.28;89.03
56604;BME280;42486;47.478;19.036;2023-02-03T02:44:00;100960.44;;;0.41;89.45
56604;BME280;42486;47.478;19.036;2023-02-03T02:47:49;100961.16;;;0.48;89.62
56604;BME280;42486;47.478;19.036;2023-02-03T02:51:14;100968.22;;;0.38;91.26
56604;BME280;42486;47.478;19.036;2023-02-03T02:54:50;100974.88;;;0.47;89.14
56604;BME280;42486;47.478;19.036;2023-02-03T02:58:39;100971.53;;;0.43;88.17
56604;BME280;42486;47.478;19.036;2023-02-03T03:02:07;100968.91;;;0.45;88.51
56604;BME280;42486;47.478;19.036;2023-02-03T03:05:36;100969.94;;;0.38;89.64
56604;BME280;42486;47.478;19.036;2023-02-03T03:09:04;100969.28;;;0.28;89.46
56604;BME280;42486;47.478;19.036;2023-02-03T03:13:06;100969.59;;;0.14;91.56
56604;BME280;42486;47.478;19.036;2023-02-03T03:16:36;100974.66;;;0.16;88.99
56604;BME280;42486;47.478;19.036;2023-02-03T03:20:06;100975.59;;;0.13;90.96
56604;BME280;42486;47.478;19.036;2023-02-03T03:23:38;100968.91;;;0.05;88.29
56604;BME280;42486;47.478;19.036;2023-02-03T03:27:23;100967.91;;;0.13;85.61
56604;BME280;42486;47.478;19.036;2023-02-03T03:30:34;100963.56;;;0.15;85.03
56604;BME280;42486;47.478;19.036;2023-02-03T03:34:00;100959.91;;;0.26;85.56
56604;BME280;42486;47.478;19.036;2023-02-03T03:41:02;100958.25;;;0.23;84.25
56604;BME280;42486;47.478;19.036;2023-02-03T03:44:23;100959.09;;;0.24;85.53
56604;BME280;42486;47.478;19.036;2023-02-03T03:48:18;100959.25;;;0.17;87.60
56604;BME280;42486;47.478;19.036;2023-02-03T03:52:08;100965.41;;;0.09;86.66
56604;BME280;42486;47.478;19.036;2023-02-03T03:55:36;100963.69;;;0.09;83.56
56604;BME280;42486;47.478;19.036;2023-02-03T03:59:01;100959.31;;;0.13;82.18
56604;BME280;42486;47.478;19.036;2023-02-03T04:02:31;100960.13;;;0.16;83.28
56604;BME280;42486;47.478;19.036;2023-02-03T04:05:40;100955.97;;;0.11;85.04
56604;BME280;42486;47.478;19.036;2023-02-03T04:08:43;100948.47;;;0.00;84.01
56604;BME280;42486;47.478;19.036;2023-02-03T04:11:46;100956.19;;;0.00;83.02
56604;BME280;42486;47.478;19.036;2023-02-03T04:15:03;100948.19;;;0.14;82.66
56604;BME280;42486;47.478;19.036;2023-02-03T04:18:06;100952.50;;;0.13;79.91
56604;BME280;42486;47.478;19.036;2023-02-03T04:21:12;100944.63;;;0.19;79.75
56604;BME280;42486;47.478;19.036;2023-02-03T04:24:16;100948.13;;;0.15;80.97
56604;BME280;42486;47.478;19.036;2023-02-03T04:27:20;100932.84;;;0.11;83.28
56604;BME280;42486;47.478;19.036;2023-02-03T04:30:24;100937.16;;;0.09;85.21
56604;BME280;42486;47.478;19.036;2023-02-03T04:33:28;100937.22;;;0.06;82.58
56604;BME280;42486;47.478;19.036;2023-02-03T04:36:34;100936.28;;;0.10;82.62
56604;BME280;42486;47.478;19.036;2023-02-03T04:39:41;100946.47;;;0.13;81.97
56604;BME280;42486;47.478;19.036;2023-02-03T04:42:43;100946.16;;;0.28;78.27
56604;BME280;42486;47.478;19.036;2023-02-03T04:45:46;100952.37;;;0.57;75.79
56604;BME280;42486;47.478;19.036;2023-02-03T04:48:54;100947.81;;;0.70;76.40
56604;BME280;42486;47.478;19.036;2023-02-03T04:51:56;100940.88;;;0.72;74.84
56604;BME280;42486;47.478;19.036;2023-02-03T04:55:03;100937.22;;;0.82;73.89
56604;BME280;42486;47.478;19.036;2023-02-03T04:58:07;100940.78;;;0.78;75.40
56604;BME280;42486;47.478;19.036;2023-02-03T05:01:12;100945.03;;;0.79;72.72
56604;BME280;42486;47.478;19.036;2023-02-03T05:04:18;100936.94;;;0.94;73.71
56604;BME280;42486;47.478;19.036;2023-02-03T05:07:22;100927.59;;;0.90;73.78
56604;BME280;42486;47.478;19.036;2023-02-03T05:10:30;100932.78;;;0.88;75.41
56604;BME280;42486;47.478;19.036;2023-02-03T05:13:33;100934.53;;;0.88;70.73
56604;BME280;42486;47.478;19.036;2023-02-03T05:16:36;100933.47;;;0.95;70.29
56604;BME280;42486;47.478;19.036;2023-02-03T05:19:38;100940.34;;;0.96;70.33
56604;BME280;42486;47.478;19.036;2023-02-03T05:22:44;100934.91;;;1.07;67.92
56604;BME280;42486;47.478;19.036;2023-02-03T05:25:46;100945.22;;;1.07;69.38
56604;BME280;42486;47.478;19.036;2023-02-03T05:28:49;100940.16;;;1.04;69.54
56604;BME280;42486;47.478;19.036;2023-02-03T05:31:58;100947.88;;;1.04;69.70
56604;BME280;42486;47.478;19.036;2023-02-03T05:35:02;100963.22;;;1.07;67.80
56604;BME280;42486;47.478;19.036;2023-02-03T05:38:04;100958.84;;;1.09;68.40
56604;BME280;42486;47.478;19.036;2023-02-03T05:41:11;100945.87;;;1.14;64.17
56604;BME280;42486;47.478;19.036;2023-02-03T05:44:32;100956.06;;;1.18;64.19
56604;BME280;42486;47.478;19.036;2023-02-03T05:47:36;100938.16;;;1.14;64.91
56604;BME280;42486;47.478;19.036;2023-02-03T05:50:42;100959.53;;;1.17;67.91
56604;BME280;42486;47.478;19.036;2023-02-03T05:53:49;100960.59;;;1.08;67.87
56604;BME280;42486;47.478;19.036;2023-02-03T05:56:57;100953.59;;;1.14;66.76
56604;BME280;42486;47.478;19.036;2023-02-03T06:00:00;100956.81;;;1.23;66.40
56604;BME280;42486;47.478;19.036;2023-02-03T06:03:03;100961.94;;;1.23;68.79
56604;BME280;42486;47.478;19.036;2023-02-03T06:06:07;100961.12;;;1.23;65.30
56604;BME280;42486;47.478;19.036;2023-02-03T06:09:10;100953.34;;;1.24;65.80
56604;BME280;42486;47.478;19.036;2023-02-03T06:12:18;100949.75;;;1.30;65.24
56604;BME280;42486;47.478;19.036;2023-02-03T06:15:21;100939.41;;;1.33;66.41
56604;BME280;42486;47.478;19.036;2023-02-03T06:18:24;100940.25;;;1.34;64.90
56604;BME280;42486;47.478;19.036;2023-02-03T06:21:29;100947.06;;;1.35;64.97
56604;BME280;42486;47.478;19.036;2023-02-03T06:24:37;100945.34;;;1.35;66.82
56604;BME280;42486;47.478;19.036;2023-02-03T06:27:40;100951.38;;;1.34;67.90
56604;BME280;42486;47.478;19.036;2023-02-03T06:30:43;100959.94;;;1.35;65.94
56604;BME280;42486;47.478;19.036;2023-02-03T06:33:46;100970.31;;;1.31;67.22
56604;BME280;42486;47.478;19.036;2023-02-03T06:36:48;100957.44;;;1.33;66.49
56604;BME280;42486;47.478;19.036;2023-02-03T06:39:54;100955.81;;;1.29;66.28
56604;BME280;42486;47.478;19.036;2023-02-03T06:42:58;100968.50;;;1.35;67.42
56604;BME280;42486;47.478;19.036;2023-02-03T06:46:01;100973.66;;;1.35;65.55
56604;BME280;42486;47.478;19.036;2023-02-03T06:49:07;100982.28;;;1.34;64.99
56604;BME280;42486;47.478;19.036;2023-02-03T06:52:13;100973.56;;;1.38;65.64
56604;BME280;42486;47.478;19.036;2023-02-03T06:55:21;100980.31;;;1.44;64.41
56604;BME280;42486;47.478;19.036;2023-02-03T06:58:26;100978.22;;;1.58;66.57
56604;BME280;42486;47.478;19.036;2023-02-03T07:01:28;100968.47;;;1.69;67.40
56604;BME280;42486;47.478;19.036;2023-02-03T07:04:33;100973.63;;;1.69;70.53
56604;BME280;42486;47.478;19.036;2023-02-03T07:07:38;100958.72;;;1.81;71.15
56604;BME280;42486;47.478;19.036;2023-02-03T07:10:41;100961.22;;;1.84;72.58
56604;BME280;42486;47.478;19.036;2023-02-03T07:13:48;100966.63;;;1.74;71.15
56604;BME280;42486;47.478;19.036;2023-02-03T07:16:51;100952.44;;;1.60;70.93
56604;BME280;42486;47.478;19.036;2023-02-03T07:20:02;100963.78;;;1.52;72.69
56604;BME280;42486;47.478;19.036;2023-02-03T07:23:04;100959.19;;;1.64;73.11
56604;BME280;42486;47.478;19.036;2023-02-03T07:26:09;100959.91;;;1.69;74.32
56604;BME280;42486;47.478;19.036;2023-02-03T07:29:19;100959.69;;;1.76;74.77
56604;BME280;42486;47.478;19.036;2023-02-03T07:32:24;100958.84;;;1.76;70.71
56604;BME280;42486;47.478;19.036;2023-02-03T07:35:28;100957.75;;;1.85;71.43
56604;BME280;42486;47.478;19.036;2023-02-03T07:38:30;100961.28;;;1.81;73.66
56604;BME280;42486;47.478;19.036;2023-02-03T07:41:34;100970.66;;;1.83;73.69
56604;BME280;42486;47.478;19.036;2023-02-03T07:44:40;100968.16;;;1.82;74.71
56604;BME280;42486;47.478;19.036;2023-02-03T07:47:48;100980.97;;;1.83;74.77
56604;BME280;42486;47.478;19.036;2023-02-03T07:50:58;100977.44;;;1.87;74.18
56604;BME280;42486;47.478;19.036;2023-02-03T07:54:04;100976.41;;;1.93;65.92
56604;BME280;42486;47.478;19.036;2023-02-03T07:57:15;100984.88;;;1.98;66.19
56604;BME280;42486;47.478;19.036;2023-02-03T08:00:21;100978.91;;;1.96;67.03
56604;BME280;42486;47.478;19.036;2023-02-03T08:03:24;100986.53;;;1.99;70.18
56604;BME280;42486;47.478;19.036;2023-02-03T08:06:30;101002.31;;;1.88;71.15
56604;BME280;42486;47.478;19.036;2023-02-03T08:09:35;100997.25;;;1.85;71.77
56604;BME280;42486;47.478;19.036;2023-02-03T08:12:41;100988.84;;;1.79;72.79
56604;BME280;42486;47.478;19.036;2023-02-03T08:15:51;100981.03;;;1.82;71.36
56604;BME280;42486;47.478;19.036;2023-02-03T08:18:56;100985.38;;;1.80;69.33
56604;BME280;42486;47.478;19.036;2023-02-03T08:22:05;100992.91;;;1.87;71.72
56604;BME280;42486;47.478;19.036;2023-02-03T08:25:09;100997.03;;;1.93;73.85
56604;BME280;42486;47.478;19.036;2023-02-03T08:28:18;100986.75;;;1.91;76.33
56604;BME280;42486;47.478;19.036;2023-02-03T08:31:22;100987.69;;;1.89;77.24
56604;BME280;42486;47.478;19.036;2023-02-03T08:34:25;100979.91;;;1.92;77.70
56604;BME280;42486;47.478;19.036;2023-02-03T08:37:40;100976.59;;;1.87;79.33
56604;BME280;42486;47.478;19.036;2023-02-03T08:40:43;100991.06;;;1.91;79.55
56604;BME280;42486;47.478;19.036;2023-02-03T08:43:51;100995.56;;;1.84;80.35
56604;BME280;42486;47.478;19.036;2023-02-03T08:46:57;100989.56;;;1.84;81.38
56604;BME280;42486;47.478;19.036;2023-02-03T08:50:04;100994.00;;;1.79;81.32
56604;BME280;42486;47.478;19.036;2023-02-03T08:53:08;101000.19;;;1.71;81.49
56604;BME280;42486;47.478;19.036;2023-02-03T08:56:11;101002.47;;;1.82;83.00
56604;BME280;42486;47.478;19.036;2023-02-03T08:59:21;101002.28;;;1.90;82.38
56604;BME280;42486;47.478;19.036;2023-02-03T09:02:25;101008.34;;;1.87;83.55
56604;BME280;42486;47.478;19.036;2023-02-03T09:05:43;101004.88;;;1.88;82.75
56604;BME280;42486;47.478;19.036;2023-02-03T09:08:52;101009.47;;;1.77;86.09
56604;BME280;42486;47.478;19.036;2023-02-03T09:11:56;101003.66;;;1.70;88.75
56604;BME280;42486;47.478;19.036;2023-02-03T09:15:06;101005.38;;;1.70;90.26
56604;BME280;42486;47.478;19.036;2023-02-03T09:18:09;101008.38;;;1.53;94.28
56604;BME280;42486;47.478;19.036;2023-02-03T09:21:15;101008.66;;;1.42;97.96
56604;BME280;42486;47.478;19.036;2023-02-03T09:24:38;101002.13;;;1.29;100.00
56604;BME280;42486;47.478;19.036;2023-02-03T09:27:42;101006.66;;;1.19;100.00
56604;BME280;42486;47.478;19.036;2023-02-03T09:30:47;100999.00;;;1.16;100.00
56604;BME280;42486;47.478;19.036;2023-02-03T09:33:52;100985.63;;;1.02;100.00
56604;BME280;42486;47.478;19.036;2023-02-03T09:36:57;100989.31;;;0.90;100.00
56604;BME280;42486;47.478;19.036;2023-02-03T09:40:05;100981.03;;;0.79;100.00
56604;BME280;42486;47.478;19.036;2023-02-03T09:46:20;100963.66;;;0.51;100.00
56604;BME280;42486;47.478;19.036;2023-02-03T09:49:25;100955.16;;;0.48;100.00
56604;BME280;42486;47.478;19.036;2023-02-03T09:52:32;100947.41;;;0.51;100.00
56604;BME280;42486;47.478;19.036;2023-02-03T09:55:37;100939.38;;;0.63;100.00
56604;BME280;42486;47.478;19.036;2023-02-03T09:58:42;100932.56;;;0.62;100.00
56604;BME280;42486;47.478;19.036;2023-02-03T10:02:00;100922.13;;;0.68;100.00
56604;BME280;42486;47.478;19.036;2023-02-03T10:05:26;100916.25;;;0.63;100.00
56604;BME280;42486;47.478;19.036;2023-02-03T10:12:10;100904.94;;;0.70;100.00
56604;BME280;42486;47.478;19.036;2023-02-03T10:18:47;100876.66;;;0.70;100.00
56604;BME280;42486;47.478;19.036;2023-02-03T10:21:53;100877.47;;;0.72;100.00
56604;BME280;42486;47.478;19.036;2023-02-03T10:25:02;100872.28;;;0.74;100.00
56604;BME280;42486;47.478;19.036;2023-02-03T10:28:17;100862.81;;;0.76;100.00
56604;BME280;42486;47.478;19.036;2023-02-03T10:31:27;100848.13;;;0.79;100.00
56604;BME280;42486;47.478;19.036;2023-02-03T10:34:33;100846.53;;;0.75;100.00
56604;BME280;42486;47.478;19.036;2023-02-03T10:37:46;100829.28;;;0.79;100.00
56604;BME280;42486;47.478;19.036;2023-02-03T10:40:50;100830.28;;;0.75;100.00
56604;BME280;42486;47.478;19.036;2023-02-03T10:44:19;100834.63;;;0.71;100.00
56604;BME280;42486;47.478;19.036;2023-02-03T10:47:31;100823.59;;;0.66;100.00
56604;BME280;42486;47.478;19.036;2023-02-03T10:50:36;100809.87;;;0.67;100.00
56604;BME280;42486;47.478;19.036;2023-02-03T10:53:42;100804.03;;;0.62;100.00
56604;BME280;42486;47.478;19.036;2023-02-03T10:56:44;100805.75;;;0.61;100.00
56604;BME280;42486;47.478;19.036;2023-02-03T10:59:46;100799.97;;;0.53;100.00
56604;BME280;42486;47.478;19.036;2023-02-03T11:06:04;100776.28;;;0.40;100.00
56604;BME280;42486;47.478;19.036;2023-02-03T11:09:20;100777.28;;;0.35;100.00
56604;BME280;42486;47.478;19.036;2023-02-03T11:12:23;100761.16;;;0.28;100.00
56604;BME280;42486;47.478;19.036;2023-02-03T11:15:25;100758.66;;;0.27;100.00
56604;BME280;42486;47.478;19.036;2023-02-03T11:24:38;100742.53;;;0.18;100.00
56604;BME280;42486;47.478;19.036;2023-02-03T11:27:42;100728.03;;;0.17;100.00
56604;BME280;42486;47.478;19.036;2023-02-03T11:30:45;100704.00;;;0.18;100.00
56604;BME280;42486;47.478;19.036;2023-02-03T11:33:59;100720.50;;;0.10;100.00
56604;BME280;42486;47.478;19.036;2023-02-03T11:37:22;100713.91;;;-0.01;100.00
56604;BME280;42486;47.478;19.036;2023-02-03T11:40:27;100713.88;;;0.01;100.00
56604;BME280;42486;47.478;19.036;2023-02-03T11:43:30;100707.06;;;0.00;100.00
56604;BME280;42486;47.478;19.036;2023-02-03T11:46:35;100701.03;;;0.01;100.00
56604;BME280;42486;47.478;19.036;2023-02-03T11:59:27;100651.31;;;0.04;100.00
56604;BME280;42486;47.478;19.036;2023-02-03T12:05:57;100636.97;;;-0.05;100.00
56604;BME280;42486;47.478;19.036;2023-02-03T12:16:25;100604.28;;;0.02;100.00
56604;BME280;42486;47.478;19.036;2023-02-03T12:19:28;100603.31;;;0.06;100.00
56604;BME280;42486;47.478;19.036;2023-02-03T12:29:17;100576.66;;;0.10;100.00
56604;BME280;42486;47.478;19.036;2023-02-03T12:35:33;100552.72;;;0.08;100.00
56604;BME280;42486;47.478;19.036;2023-02-03T12:41:49;100523.56;;;0.10;100.00
56604;BME280;42486;47.478;19.036;2023-02-03T12:45:02;100520.12;;;0.11;100.00
56604;BME280;42486;47.478;19.036;2023-02-03T12:48:11;100509.88;;;0.10;100.00
56604;BME280;42486;47.478;19.036;2023-02-03T12:51:16;100505.63;;;0.09;100.00
56604;BME280;42486;47.478;19.036;2023-02-03T12:54:32;100504.53;;;0.17;100.00
56604;BME280;42486;47.478;19.036;2023-02-03T13:01:01;100487.66;;;0.09;100.00
56604;BME280;42486;47.478;19.036;2023-02-03T13:07:17;100460.78;;;-0.11;100.00
56604;BME280;42486;47.478;19.036;2023-02-03T13:10:25;100453.06;;;-0.11;100.00
56604;BME280;42486;47.478;19.036;2023-02-03T13:13:35;100444.44;;;-0.08;100.00
56604;BME280;42486;47.478;19.036;2023-02-03T13:16:42;100431.56;;;-0.05;100.00
56604;BME280;42486;47.478;19.036;2023-02-03T13:19:47;100425.31;;;0.04;100.00
56604;BME280;42486;47.478;19.036;2023-02-03T13:22:50;100425.94;;;0.10;100.00
56604;BME280;42486;47.478;19.036;2023-02-03T13:29:22;100412.06;;;0.16;100.00
56604;BME280;42486;47.478;19.036;2023-02-03T13:32:33;100398.06;;;0.26;100.00
56604;BME280;42486;47.478;19.036;2023-02-03T13:35:43;100390.44;;;0.25;100.00
56604;BME280;42486;47.478;19.036;2023-02-03T13:41:53;100376.06;;;0.19;100.00
56604;BME280;42486;47.478;19.036;2023-02-03T13:48:15;100366.22;;;0.32;100.00
56604;BME280;42486;47.478;19.036;2023-02-03T13:51:21;100357.56;;;0.34;100.00
56604;BME280;42486;47.478;19.036;2023-02-03T13:54:32;100354.94;;;0.37;100.00
56604;BME280;42486;47.478;19.036;2023-02-03T13:57:36;100340.16;;;0.42;100.00
56604;BME280;42486;47.478;19.036;2023-02-03T14:03:44;100327.97;;;0.49;100.00
56604;BME280;42486;47.478;19.036;2023-02-03T14:13:18;100317.34;;;0.60;100.00
56604;BME280;42486;47.478;19.036;2023-02-03T14:16:21;100315.50;;;0.63;100.00
56604;BME280;42486;47.478;19.036;2023-02-03T14:22:26;100311.06;;;0.69;100.00
56604;BME280;42486;47.478;19.036;2023-02-03T14:25:29;100300.72;;;0.70;100.00
56604;BME280;42486;47.478;19.036;2023-02-03T14:28:39;100294.56;;;0.74;100.00
56604;BME280;42486;47.478;19.036;2023-02-03T14:31:53;100292.91;;;0.73;100.00
56604;BME280;42486;47.478;19.036;2023-02-03T14:34:56;100290.19;;;0.78;100.00
56604;BME280;42486;47.478;19.036;2023-02-03T14:38:06;100294.22;;;0.85;100.00
56604;BME280;42486;47.478;19.036;2023-02-03T14:41:10;100284.78;;;0.85;100.00
56604;BME280;42486;47.478;19.036;2023-02-03T14:44:16;100282.94;;;0.89;100.00
56604;BME280;42486;47.478;19.036;2023-02-03T15:00:30;100258.47;;;1.02;100.00
56604;BME280;42486;47.478;19.036;2023-02-03T15:03:34;100250.59;;;1.07;100.00
56604;BME280;42486;47.478;19.036;2023-02-03T15:06:39;100250.31;;;1.15;100.00
56604;BME280;42486;47.478;19.036;2023-02-03T15:09:43;100242.69;;;1.12;100.00
56604;BME280;42486;47.478;19.036;2023-02-03T15:12:47;100234.09;;;1.13;100.00
56604;BME280;42486;47.478;19.036;2023-02-03T15:15:51;100225.53;;;1.12;100.00
56604;BME280;42486;47.478;19.036;2023-02-03T15:18:57;100219.31;;;1.18;100.00
56604;BME280;42486;47.478;19.036;2023-02-03T15:22:00;100220.00;;;1.23;100.00
56604;BME280;42486;47.478;19.036;2023-02-03T15:25:03;100208.78;;;1.24;100.00
56604;BME280;42486;47.478;19.036;2023-02-03T15:28:19;100210.41;;;1.26;100.00
56604;BME280;42486;47.478;19.036;2023-02-03T15:37:35;100186.06;;;1.35;100.00
56604;BME280;42486;47.478;19.036;2023-02-03T15:40:43;100178.28;;;1.37;100.00
56604;BME280;42486;47.478;19.036;2023-02-03T15:43:45;100179.09;;;1.39;100.00
56604;BME280;42486;47.478;19.036;2023-02-03T15:46:50;100176.25;;;1.45;100.00
56604;BME280;42486;47.478;19.036;2023-02-03T15:50:04;100167.50;;;1.49;100.00
56604;BME280;42486;47.478;19.036;2023-02-03T15:53:13;100166.53;;;1.51;100.00
56604;BME280;42486;47.478;19.036;2023-02-03T15:56:18;100175.84;;;1.56;100.00
56604;BME280;42486;47.478;19.036;2023-02-03T15:59:24;100167.81;;;1.63;100.00
56604;BME280;42486;47.478;19.036;2023-02-03T16:02:30;100161.56;;;1.69;100.00
56604;BME280;42486;47.478;19.036;2023-02-03T16:05:34;100162.28;;;1.72;100.00
56604;BME280;42486;47.478;19.036;2023-02-03T16:08:41;100161.41;;;1.73;100.00
56604;BME280;42486;47.478;19.036;2023-02-03T16:11:43;100154.63;;;1.71;100.00
56604;BME280;42486;47.478;19.036;2023-02-03T16:14:45;100159.78;;;1.71;100.00
56604;BME280;42486;47.478;19.036;2023-02-03T16:17:52;100144.22;;;1.74;100.00
56604;BME280;42486;47.478;19.036;2023-02-03T16:20:54;100156.16;;;1.75;100.00
56604;BME280;42486;47.478;19.036;2023-02-03T16:23:57;100138.22;;;1.73;100.00
56604;BME280;42486;47.478;19.036;2023-02-03T16:30:22;100125.47;;;1.70;100.00
56604;BME280;42486;47.478;19.036;2023-02-03T16:33:44;100117.84;;;1.67;100.00
56604;BME280;42486;47.478;19.036;2023-02-03T16:37:24;100112.84;;;1.64;100.00
56604;BME280;42486;47.478;19.036;2023-02-03T16:40:45;100103.38;;;1.65;100.00
56604;BME280;42486;47.478;19.036;2023-02-03T16:44:08;100088.03;;;1.62;100.00
56604;BME280;42486;47.478;19.036;2023-02-03T16:47:31;100087.34;;;1.58;100.00
56604;BME280;42486;47.478;19.036;2023-02-03T16:50:52;100083.94;;;1.58;100.00
56604;BME280;42486;47.478;19.036;2023-02-03T16:54:00;100073.38;;;1.64;100.00
56604;BME280;42486;47.478;19.036;2023-02-03T16:57:01;100064.00;;;1.63;100.00
56604;BME280;42486;47.478;19.036;2023-02-03T17:00:03;100055.31;;;1.65;100.00
56604;BME280;42486;47.478;19.036;2023-02-03T17:03:08;100031.09;;;1.69;100.00
56604;BME280;42486;47.478;19.036;2023-02-03T17:06:10;100032.78;;;1.70;100.00
56604;BME280;42486;47.478;19.036;2023-02-03T17:09:13;100019.00;;;1.71;100.00
56604;BME280;42486;47.478;19.036;2023-02-03T17:12:15;100003.13;;;1.81;100.00
56604;BME280;42486;47.478;19.036;2023-02-03T17:15:17;100000.37;;;1.85;100.00
56604;BME280;42486;47.478;19.036;2023-02-03T17:18:19;99993.34;;;1.89;100.00
56604;BME280;42486;47.478;19.036;2023-02-03T17:21:23;99991.75;;;1.86;100.00
56604;BME280;42486;47.478;19.036;2023-02-03T17:24:24;99989.69;;;1.94;100.00
56604;BME280;42486;47.478;19.036;2023-02-03T17:27:26;99984.31;;;1.99;100.00
56604;BME280;42486;47.478;19.036;2023-02-03T17:30:28;99988.50;;;2.02;100.00
56604;BME280;42486;47.478;19.036;2023-02-03T17:33:34;99968.59;;;2.05;100.00
56604;BME280;42486;47.478;19.036;2023-02-03T17:36:36;99972.06;;;2.04;100.00
56604;BME280;42486;47.478;19.036;2023-02-03T17:39:38;99971.03;;;2.08;100.00
56604;BME280;42486;47.478;19.036;2023-02-03T17:42:57;99976.00;;;2.13;100.00
56604;BME280;42486;47.478;19.036;2023-02-03T17:46:18;99968.03;;;2.17;100.00
56604;BME280;42486;47.478;19.036;2023-02-03T17:49:37;99955.87;;;2.21;100.00
56604;BME280;42486;47.478;19.036;2023-02-03T17:52:57;99955.63;;;2.26;100.00
56604;BME280;42486;47.478;19.036;2023-02-03T17:56:07;99959.28;;;2.22;100.00
56604;BME280;42486;47.478;19.036;2023-02-03T17:59:09;99957.47;;;2.24;100.00
56604;BME280;42486;47.478;19.036;2023-02-03T18:02:11;99935.78;;;2.28;100.00
56604;BME280;42486;47.478;19.036;2023-02-03T18:05:13;99951.25;;;2.28;100.00
56604;BME280;42486;47.478;19.036;2023-02-03T18:08:15;99938.06;;;2.34;100.00
56604;BME280;42486;47.478;19.036;2023-02-03T18:11:21;99935.91;;;2.43;100.00
56604;BME280;42486;47.478;19.036;2023-02-03T18:14:22;99925.19;;;2.53;100.00
56604;BME280;42486;47.478;19.036;2023-02-03T18:17:24;99932.06;;;2.52;100.00
56604;BME280;42486;47.478;19.036;2023-02-03T18:20:26;99909.31;;;2.60;100.00
56604;BME280;42486;47.478;19.036;2023-02-03T18:23:29;99912.75;;;2.61;100.00
56604;BME280;42486;47.478;19.036;2023-02-03T18:26:34;99912.50;;;2.65;100.00
56604;BME280;42486;47.478;19.036;2023-02-03T18:29:37;99901.78;;;2.75;100.00
56604;BME280;42486;47.478;19.036;2023-02-03T18:32:41;99898.00;;;2.82;100.00
56604;BME280;42486;47.478;19.036;2023-02-03T18:35:43;99886.59;;;2.86;100.00
56604;BME280;42486;47.478;19.036;2023-02-03T18:38:45;99877.50;;;2.96;100.00
56604;BME280;42486;47.478;19.036;2023-02-03T18:41:48;99869.75;;;2.96;100.00
56604;BME280;42486;47.478;19.036;2023-02-03T18:44:49;99879.59;;;3.05;100.00
56604;BME280;42486;47.478;19.036;2023-02-03T18:47:51;99873.72;;;3.03;100.00
56604;BME280;42486;47.478;19.036;2023-02-03T18:50:53;99862.69;;;3.00;100.00
56604;BME280;42486;47.478;19.036;2023-02-03T18:53:55;99877.88;;;3.06;100.00